createdAt,value
2023-05-17T00:01:13.160Z,9.33
2023-05-17T00:03:41.440Z,9.34
2023-05-17T00:06:11.002Z,9.40
2023-05-17T00:08:38.831Z,9.30
2023-05-17T00:11:06.625Z,9.31
2023-05-17T00:13:34.292Z,9.13
2023-05-17T00:16:02.032Z,9.15
2023-05-17T00:18:30.035Z,9.10
2023-05-17T00:20:57.885Z,9.01
2023-05-17T00:23:27.082Z,8.87
2023-05-17T00:25:54.950Z,8.92
2023-05-17T00:28:22.937Z,9.00
2023-05-17T00:30:51.018Z,9.20
2023-05-17T00:33:18.759Z,9.19
2023-05-17T00:35:46.457Z,9.18
2023-05-17T00:38:14.106Z,9.32
2023-05-17T00:40:43.225Z,9.28
2023-05-17T00:43:11.245Z,9.30
2023-05-17T00:45:38.998Z,9.34
2023-05-17T00:48:07.157Z,9.44
2023-05-17T00:50:36.145Z,9.47
2023-05-17T00:53:04.015Z,9.41
2023-05-17T00:55:31.844Z,9.39
2023-05-17T00:58:01.422Z,9.46
2023-05-17T01:00:30.309Z,9.42
2023-05-17T01:02:58.167Z,9.45
2023-05-17T01:05:29.025Z,9.42
2023-05-17T01:07:57.112Z,9.44
2023-05-17T01:10:32.207Z,9.30
2023-05-17T01:13:10.733Z,9.41
2023-05-17T01:15:44.223Z,9.35
2023-05-17T01:18:22.899Z,9.28
2023-05-17T01:20:53.905Z,9.32
2023-05-17T01:23:31.387Z,9.32
2023-05-17T01:26:07.643Z,9.34
2023-05-17T01:28:39.735Z,9.28
2023-05-17T01:31:09.448Z,9.19
2023-05-17T01:33:38.058Z,9.28
2023-05-17T01:36:06.780Z,9.26
2023-05-17T01:38:34.527Z,9.25
2023-05-17T01:41:08.891Z,9.24
2023-05-17T01:43:44.762Z,9.20
2023-05-17T01:46:20.010Z,9.34
2023-05-17T01:48:54.512Z,9.25
2023-05-17T01:51:25.038Z,9.26
2023-05-17T01:53:58.230Z,9.25
2023-05-17T01:56:34.397Z,9.30
2023-05-17T01:59:05.652Z,9.30
2023-05-17T02:01:33.826Z,9.45
2023-05-17T02:04:01.677Z,9.41
2023-05-17T02:06:29.566Z,9.29
2023-05-17T02:08:59.942Z,9.35
2023-05-17T02:11:27.770Z,9.35
2023-05-17T02:13:55.437Z,9.33
2023-05-17T02:16:24.535Z,9.24
2023-05-17T02:18:52.300Z,9.23
2023-05-17T02:21:20.189Z,9.18
2023-05-17T02:23:47.921Z,9.15
2023-05-17T02:26:15.635Z,9.09
2023-05-17T02:28:43.410Z,9.13
2023-05-17T02:31:11.578Z,9.04
2023-05-17T02:33:40.838Z,9.05
2023-05-17T02:36:08.958Z,9.03
2023-05-17T02:38:36.667Z,8.92
2023-05-17T02:41:04.411Z,8.92
2023-05-17T02:43:32.188Z,8.92
2023-05-17T02:45:59.907Z,8.88
2023-05-17T02:48:27.583Z,8.75
2023-05-17T02:50:56.737Z,8.72
2023-05-17T02:53:24.494Z,8.52
2023-05-17T02:55:52.482Z,8.62
2023-05-17T02:58:20.211Z,8.58
2023-05-17T03:00:47.969Z,8.67
2023-05-17T03:03:16.094Z,8.60
2023-05-17T03:05:44.225Z,8.57
2023-05-17T03:08:13.361Z,8.52
2023-05-17T03:10:41.190Z,8.68
2023-05-17T03:13:08.904Z,8.54
2023-05-17T03:15:36.880Z,8.57
2023-05-17T03:18:04.870Z,8.52
2023-05-17T03:20:32.613Z,8.38
2023-05-17T03:23:00.529Z,8.39
2023-05-17T03:25:29.856Z,8.45
2023-05-17T03:27:57.658Z,8.39
2023-05-17T03:30:25.392Z,8.29
2023-05-17T03:32:54.180Z,8.23
2023-05-17T03:35:22.319Z,8.19
2023-05-17T03:37:49.971Z,8.25
2023-05-17T03:40:17.782Z,8.29
2023-05-17T03:42:47.249Z,8.24
2023-05-17T03:45:14.895Z,8.31
2023-05-17T03:47:43.256Z,8.26
2023-05-17T03:50:11.783Z,8.36
2023-05-17T03:52:41.919Z,8.33
2023-05-17T03:55:10.639Z,8.31
2023-05-17T03:57:38.555Z,8.44
2023-05-17T04:00:11.735Z,8.41
2023-05-17T04:02:39.570Z,8.51
2023-05-17T04:05:07.950Z,8.56
2023-05-17T04:07:36.042Z,8.47
2023-05-17T04:10:03.812Z,8.47
2023-05-17T04:12:31.465Z,8.55
2023-05-17T04:14:59.387Z,8.54
2023-05-17T04:17:29.127Z,8.58
2023-05-17T04:19:57.064Z,8.76
2023-05-17T04:22:24.952Z,8.59
2023-05-17T04:24:52.715Z,8.68
2023-05-17T04:27:21.930Z,8.65
2023-05-17T04:29:49.726Z,8.80
2023-05-17T04:32:18.954Z,9.00
2023-05-17T04:34:48.119Z,9.16
2023-05-17T04:37:16.287Z,9.16
2023-05-17T04:39:44.348Z,9.26
2023-05-17T04:42:12.118Z,9.32
2023-05-17T04:44:39.828Z,9.44
2023-05-17T04:47:08.171Z,9.44
2023-05-17T04:49:36.048Z,9.56
2023-05-17T04:52:06.379Z,9.68
2023-05-17T04:54:34.065Z,9.87
2023-05-17T04:57:01.951Z,9.81
2023-05-17T04:59:29.785Z,10.06
2023-05-17T05:01:57.686Z,10.28
2023-05-17T05:04:25.594Z,10.17
2023-05-17T05:06:53.429Z,10.30
2023-05-17T05:09:22.539Z,10.43
2023-05-17T05:11:50.367Z,10.58
2023-05-17T05:14:18.055Z,10.50
2023-05-17T05:16:45.937Z,10.55
2023-05-17T05:19:13.830Z,10.66
2023-05-17T05:21:41.867Z,11.01
2023-05-17T05:24:09.753Z,10.99
2023-05-17T05:26:38.860Z,10.89
2023-05-17T05:29:06.822Z,11.02
2023-05-17T05:31:34.632Z,11.25
2023-05-17T05:34:02.527Z,11.34
2023-05-17T05:36:30.955Z,11.22
2023-05-17T05:39:01.240Z,11.36
2023-05-17T05:41:29.099Z,11.48
2023-05-17T05:44:00.403Z,11.41
2023-05-17T05:46:28.173Z,11.67
2023-05-17T05:48:55.879Z,11.76
2023-05-17T05:51:23.769Z,11.83
2023-05-17T05:53:51.492Z,11.85
2023-05-17T05:56:19.189Z,11.79
2023-05-17T05:58:47.058Z,12.19
2023-05-17T06:01:16.136Z,12.15
2023-05-17T06:03:43.813Z,12.25
2023-05-17T06:06:11.788Z,12.07
2023-05-17T06:08:39.541Z,12.21
2023-05-17T06:11:07.596Z,12.36
2023-05-17T06:13:35.366Z,12.00
2023-05-17T06:16:03.060Z,12.06
2023-05-17T06:18:32.212Z,12.79
2023-05-17T06:21:00.474Z,13.08
2023-05-17T06:23:28.264Z,13.01
2023-05-17T06:25:56.013Z,13.06
2023-05-17T06:28:23.855Z,13.25
2023-05-17T06:30:51.577Z,12.86
2023-05-17T06:33:19.518Z,13.03
2023-05-17T06:35:56.567Z,13.28
2023-05-17T06:38:25.864Z,13.26
2023-05-17T06:40:54.893Z,12.95
2023-05-17T06:43:23.007Z,13.06
2023-05-17T06:45:50.858Z,12.94
2023-05-17T06:48:18.883Z,13.24
2023-05-17T06:50:48.124Z,13.45
2023-05-17T06:53:16.049Z,13.60
2023-05-17T06:55:43.947Z,14.00
2023-05-17T06:58:11.729Z,14.40
2023-05-17T07:00:39.539Z,14.38
2023-05-17T07:03:07.327Z,13.81
2023-05-17T07:05:36.226Z,13.72
2023-05-17T07:08:05.942Z,14.03
2023-05-17T07:10:33.735Z,13.94
2023-05-17T07:13:01.555Z,14.52
2023-05-17T07:15:30.091Z,14.81
2023-05-17T07:17:59.308Z,14.95
2023-05-17T07:20:27.147Z,15.35
2023-05-17T07:22:54.909Z,15.37
2023-05-17T07:25:23.939Z,15.04
2023-05-17T07:27:51.680Z,14.43
2023-05-17T07:30:19.398Z,15.15
2023-05-17T07:32:47.204Z,14.84
2023-05-17T07:35:15.393Z,15.14
2023-05-17T07:37:43.580Z,15.44
2023-05-17T07:40:12.207Z,14.42
2023-05-17T07:42:41.503Z,14.23
2023-05-17T07:45:10.728Z,13.94
2023-05-17T07:47:38.752Z,14.22
2023-05-17T07:50:07.952Z,14.11
2023-05-17T07:52:35.783Z,13.96
2023-05-17T07:55:04.058Z,14.54
2023-05-17T07:57:32.130Z,14.97
2023-05-17T08:00:01.311Z,15.13
2023-05-17T08:02:32.071Z,14.61
2023-05-17T08:05:00.119Z,14.00
2023-05-17T08:07:28.021Z,13.73
2023-05-17T08:09:56.694Z,13.36
2023-05-17T08:12:24.372Z,13.93
2023-05-17T08:14:52.169Z,13.63
2023-05-17T08:17:22.347Z,13.43
2023-05-17T08:19:50.382Z,13.92
2023-05-17T08:22:18.311Z,13.59
2023-05-17T08:24:46.191Z,14.06
2023-05-17T08:27:13.940Z,14.02
2023-05-17T08:29:41.766Z,13.55
2023-05-17T08:32:09.603Z,13.62
2023-05-17T08:34:39.171Z,13.49
2023-05-17T08:37:07.068Z,13.79
2023-05-17T08:39:34.962Z,13.61
2023-05-17T08:42:03.201Z,13.27
2023-05-17T08:44:31.074Z,13.43
2023-05-17T08:47:00.516Z,13.25
2023-05-17T08:49:30.135Z,13.04
2023-05-17T08:52:01.663Z,13.32
2023-05-17T08:54:29.918Z,13.82
2023-05-17T08:57:02.154Z,13.53
2023-05-17T08:59:34.041Z,14.37
2023-05-17T09:02:02.778Z,14.15
2023-05-17T09:04:31.192Z,14.41
2023-05-17T09:07:00.316Z,13.81
2023-05-17T09:09:28.412Z,13.84
2023-05-17T09:11:56.438Z,13.88
2023-05-17T09:14:24.170Z,14.30
2023-05-17T09:16:58.350Z,13.82
2023-05-17T09:19:26.230Z,14.23
2023-05-17T09:21:55.272Z,14.05
2023-05-17T09:24:31.010Z,14.03
2023-05-17T09:27:03.007Z,13.59
2023-05-17T09:29:32.506Z,13.42
2023-05-17T09:32:13.922Z,14.24
2023-05-17T09:34:42.807Z,15.26
2023-05-17T09:37:19.562Z,16.05
2023-05-17T09:39:49.438Z,16.76
2023-05-17T09:42:18.561Z,15.81
2023-05-17T09:44:48.240Z,15.84
2023-05-17T09:47:23.893Z,16.25
2023-05-17T09:49:52.043Z,15.82
2023-05-17T09:52:20.938Z,16.69
2023-05-17T09:54:54.739Z,15.88
2023-05-17T09:57:23.073Z,16.15
2023-05-17T09:59:51.468Z,16.23
2023-05-17T10:02:25.767Z,16.00
2023-05-17T10:04:54.082Z,15.71
2023-05-17T10:07:22.693Z,14.96
2023-05-17T10:09:51.345Z,15.15
2023-05-17T10:12:24.332Z,15.05
2023-05-17T10:14:55.867Z,15.24
2023-05-17T10:17:24.445Z,15.24
2023-05-17T10:19:52.949Z,15.75
2023-05-17T10:22:23.911Z,15.54
2023-05-17T10:24:52.732Z,14.91
2023-05-17T10:27:22.582Z,15.47
2023-05-17T10:29:51.470Z,15.78
2023-05-17T10:32:22.924Z,14.97
2023-05-17T10:35:06.085Z,14.86
2023-05-17T10:37:37.981Z,14.62
2023-05-17T10:40:06.783Z,14.86
2023-05-17T10:42:36.199Z,14.10
2023-05-17T10:45:04.595Z,14.44
2023-05-17T10:47:35.568Z,14.87
2023-05-17T10:50:10.158Z,15.07
2023-05-17T10:52:40.149Z,14.99
2023-05-17T10:55:09.077Z,15.52
2023-05-17T10:57:50.525Z,15.41
2023-05-17T11:00:22.001Z,16.65
2023-05-17T11:02:50.929Z,17.13
2023-05-17T11:05:25.831Z,16.42
2023-05-17T11:07:54.205Z,16.66
2023-05-17T11:10:22.652Z,15.84
2023-05-17T11:12:57.802Z,16.80
2023-05-17T11:15:27.145Z,16.79
2023-05-17T11:17:56.259Z,15.54
2023-05-17T11:20:36.873Z,16.22
2023-05-17T11:23:07.063Z,16.16
2023-05-17T11:25:36.940Z,15.90
2023-05-17T11:28:11.179Z,15.41
2023-05-17T11:30:43.496Z,15.72
2023-05-17T11:33:24.963Z,15.79
2023-05-17T11:35:57.650Z,15.74
2023-05-17T11:38:31.706Z,15.96
2023-05-17T11:41:01.313Z,15.28
2023-05-17T11:43:31.102Z,15.33
2023-05-17T11:46:01.501Z,15.49
2023-05-17T11:48:31.828Z,16.03
2023-05-17T11:51:02.151Z,16.39
2023-05-17T11:53:32.323Z,16.71
2023-05-17T11:56:04.093Z,16.74
2023-05-17T11:58:33.834Z,17.14
2023-05-17T12:01:01.783Z,17.23
2023-05-17T12:03:30.893Z,16.94
2023-05-17T12:06:07.753Z,17.51
2023-05-17T12:08:38.060Z,18.11
2023-05-17T12:11:07.412Z,18.37
2023-05-17T12:13:37.052Z,18.22
2023-05-17T12:16:08.745Z,17.86
2023-05-17T12:18:38.429Z,17.41
2023-05-17T12:21:07.394Z,17.58
2023-05-17T12:23:36.601Z,16.70
2023-05-17T12:26:09.374Z,17.45
2023-05-17T12:28:40.140Z,17.20
2023-05-17T12:31:11.087Z,17.62
2023-05-17T12:33:41.700Z,17.23
2023-05-17T12:36:10.996Z,17.16
2023-05-17T12:38:41.058Z,17.52
2023-05-17T12:41:11.746Z,17.54
2023-05-17T12:43:41.609Z,16.82
2023-05-17T12:46:11.572Z,16.42
2023-05-17T12:48:43.924Z,17.14
2023-05-17T12:51:13.824Z,17.17
2023-05-17T12:53:43.867Z,17.27
2023-05-17T12:56:17.960Z,16.61
2023-05-17T12:59:05.415Z,17.38
2023-05-17T13:01:37.527Z,18.36
2023-05-17T13:04:05.848Z,19.03
2023-05-17T13:06:45.766Z,18.03
2023-05-17T13:09:14.309Z,18.67
2023-05-17T13:11:42.663Z,19.78
2023-05-17T13:14:13.192Z,19.38
2023-05-17T13:16:41.366Z,19.59
2023-05-17T13:19:15.956Z,19.43
2023-05-17T13:21:43.683Z,18.87
2023-05-17T13:24:11.853Z,18.32
2023-05-17T13:26:39.527Z,17.59
2023-05-17T13:29:07.291Z,18.12
2023-05-17T13:31:36.364Z,18.33
2023-05-17T13:34:04.204Z,19.43
2023-05-17T13:36:32.004Z,20.11
2023-05-17T13:39:01.881Z,20.23
2023-05-17T13:41:29.675Z,19.68
2023-05-17T13:43:57.694Z,18.15
2023-05-17T13:46:25.526Z,18.43
2023-05-17T13:48:54.901Z,19.07
2023-05-17T13:51:22.634Z,19.99
2023-05-17T13:53:50.584Z,18.77
2023-05-17T13:56:18.693Z,18.13
2023-05-17T13:58:46.470Z,18.76
2023-05-17T14:01:14.652Z,18.70
2023-05-17T14:03:42.504Z,18.46
2023-05-17T14:06:11.710Z,18.24
2023-05-17T14:08:40.860Z,17.44
2023-05-17T14:11:08.671Z,18.29
2023-05-17T14:13:36.715Z,18.41
2023-05-17T14:16:04.406Z,18.76
2023-05-17T14:18:32.606Z,18.29
2023-05-17T14:21:01.151Z,18.48
2023-05-17T14:23:30.550Z,18.44
2023-05-17T14:25:58.736Z,18.90
2023-05-17T14:28:26.720Z,19.31
2023-05-17T14:30:54.555Z,18.81
2023-05-17T14:33:22.870Z,18.86
2023-05-17T14:35:50.642Z,18.99
2023-05-17T14:38:20.371Z,19.01
2023-05-17T14:40:49.748Z,18.72
2023-05-17T14:43:17.625Z,20.10
2023-05-17T14:45:45.325Z,19.18
2023-05-17T14:48:13.207Z,19.13
2023-05-17T14:50:41.029Z,18.58
2023-05-17T14:53:08.871Z,19.25
2023-05-17T14:55:36.913Z,19.45
2023-05-17T14:58:06.426Z,19.98
2023-05-17T15:00:34.747Z,20.41
2023-05-17T15:03:03.201Z,19.94
2023-05-17T15:05:31.259Z,19.31
2023-05-17T15:07:59.186Z,19.26
2023-05-17T15:10:26.946Z,19.13
2023-05-17T15:12:54.680Z,18.62
2023-05-17T15:15:23.755Z,18.52
2023-05-17T15:17:52.025Z,18.65
2023-05-17T15:20:20.576Z,19.47
2023-05-17T15:22:48.576Z,19.27
2023-05-17T15:25:16.850Z,18.60
2023-05-17T15:27:44.671Z,19.82
2023-05-17T15:30:14.205Z,18.89
2023-05-17T15:32:43.232Z,18.40
2023-05-17T15:35:11.287Z,18.16
2023-05-17T15:37:39.057Z,18.30
2023-05-17T15:40:09.595Z,18.88
2023-05-17T15:42:37.640Z,18.92
2023-05-17T15:45:06.338Z,18.78
2023-05-17T15:47:43.181Z,18.34
2023-05-17T15:50:13.124Z,18.69
2023-05-17T15:52:43.100Z,18.97
2023-05-17T15:55:12.350Z,18.79
2023-05-17T15:57:40.616Z,18.63
2023-05-17T16:00:09.658Z,18.41
2023-05-17T16:02:37.904Z,18.97
2023-05-17T16:05:06.485Z,19.30
2023-05-17T16:07:35.541Z,19.20
2023-05-17T16:10:05.526Z,19.13
2023-05-17T16:12:33.296Z,19.50
2023-05-17T16:15:00.950Z,18.86
2023-05-17T16:17:28.743Z,18.43
2023-05-17T16:19:56.543Z,18.23
2023-05-17T16:22:24.273Z,18.01
2023-05-17T16:24:55.231Z,18.51
2023-05-17T16:27:23.090Z,17.35
2023-05-17T16:29:50.846Z,17.87
2023-05-17T16:32:18.819Z,17.92
2023-05-17T16:34:46.484Z,18.16
2023-05-17T16:37:14.303Z,18.39
2023-05-17T16:39:42.265Z,17.75
2023-05-17T16:42:11.560Z,17.71
2023-05-17T16:44:39.300Z,17.04
2023-05-17T16:47:07.240Z,17.82
2023-05-17T16:49:36.576Z,17.81
2023-05-17T16:52:04.829Z,17.70
2023-05-17T16:54:33.693Z,17.60
2023-05-17T16:57:02.382Z,17.65
2023-05-17T16:59:32.074Z,17.67
2023-05-17T17:01:59.971Z,16.80
2023-05-17T17:04:27.773Z,16.88
2023-05-17T17:06:55.437Z,16.69
2023-05-17T17:09:23.177Z,16.30
2023-05-17T17:11:51.080Z,16.72
2023-05-17T17:14:18.844Z,16.62
2023-05-17T17:16:47.978Z,17.07
2023-05-17T17:19:15.996Z,17.01
2023-05-17T17:21:43.753Z,16.95
2023-05-17T17:24:11.660Z,17.01
2023-05-17T17:26:39.564Z,17.03
2023-05-17T17:29:08.143Z,17.16
2023-05-17T17:31:35.825Z,16.81
2023-05-17T17:34:05.348Z,16.90
2023-05-17T17:36:33.095Z,16.68
2023-05-17T17:39:00.829Z,16.62
2023-05-17T17:41:28.619Z,16.40
2023-05-17T17:43:56.484Z,16.33
2023-05-17T17:46:25.521Z,16.17
2023-05-17T17:48:54.473Z,16.15
2023-05-17T17:51:25.819Z,16.12
2023-05-17T17:53:54.070Z,16.28
2023-05-17T17:56:23.809Z,16.30
2023-05-17T17:58:53.568Z,16.00
2023-05-17T18:01:21.571Z,16.10
2023-05-17T18:03:49.413Z,16.00
2023-05-17T18:06:17.184Z,15.91
2023-05-17T18:08:46.914Z,16.05
2023-05-17T18:11:14.614Z,15.88
2023-05-17T18:13:42.310Z,16.20
2023-05-17T18:16:10.133Z,15.97
2023-05-17T18:18:40.618Z,16.04
2023-05-17T18:21:08.823Z,15.93
2023-05-17T18:23:36.665Z,15.79
2023-05-17T18:26:06.254Z,16.00
2023-05-17T18:28:42.276Z,15.97
2023-05-17T18:31:10.622Z,15.82
2023-05-17T18:33:38.639Z,15.74
2023-05-17T18:36:07.520Z,15.74
2023-05-17T18:38:35.641Z,15.77
2023-05-17T18:41:05.147Z,15.21
2023-05-17T18:43:33.382Z,15.25
2023-05-17T18:46:01.561Z,15.49
2023-05-17T18:48:29.851Z,15.24
2023-05-17T18:50:57.818Z,15.42
2023-05-17T18:53:26.403Z,15.18
2023-05-17T18:55:54.268Z,14.83
2023-05-17T18:58:23.596Z,15.50
2023-05-17T19:00:51.563Z,15.43
2023-05-17T19:03:19.417Z,15.33
2023-05-17T19:05:47.252Z,15.10
2023-05-17T19:08:15.215Z,14.94
2023-05-17T19:10:43.206Z,14.72
2023-05-17T19:13:11.352Z,14.70
2023-05-17T19:15:41.557Z,14.36
2023-05-17T19:18:09.837Z,13.95
2023-05-17T19:20:38.030Z,13.53
2023-05-17T19:23:06.793Z,13.33
2023-05-17T19:25:34.760Z,13.26
2023-05-17T19:28:02.657Z,12.96
2023-05-17T19:30:32.754Z,12.95
2023-05-17T19:33:02.546Z,12.69
2023-05-17T19:35:30.643Z,12.55
2023-05-17T19:37:58.658Z,12.41
2023-05-17T19:40:26.824Z,12.25
2023-05-17T19:42:54.700Z,11.79
2023-05-17T19:45:22.759Z,12.02
2023-05-17T19:47:50.688Z,11.95
2023-05-17T19:50:20.050Z,11.72
2023-05-17T19:52:48.377Z,11.54
2023-05-17T19:55:21.879Z,11.30
2023-05-17T19:57:49.917Z,11.26
2023-05-17T20:00:18.733Z,11.11
2023-05-17T20:02:47.391Z,10.93
2023-05-17T20:05:17.147Z,10.84
2023-05-17T20:07:46.308Z,10.89
2023-05-17T20:10:14.402Z,10.72
2023-05-17T20:12:42.285Z,10.70
2023-05-17T20:15:11.266Z,10.61
2023-05-17T20:17:39.116Z,10.72
2023-05-17T20:20:08.075Z,10.61
2023-05-17T20:22:37.304Z,10.37
2023-05-17T20:25:07.302Z,10.37
2023-05-17T20:27:35.163Z,10.29
2023-05-17T20:30:02.945Z,10.38
2023-05-17T20:32:30.915Z,10.12
2023-05-17T20:34:58.789Z,10.20
2023-05-17T20:37:27.229Z,10.02
2023-05-17T20:39:56.655Z,10.18
2023-05-17T20:42:26.306Z,9.99
2023-05-17T20:44:54.916Z,10.33
2023-05-17T20:47:22.964Z,9.94
2023-05-17T20:49:51.002Z,10.19
2023-05-17T20:52:31.413Z,10.05
2023-05-17T20:55:07.603Z,10.58
2023-05-17T20:57:36.932Z,10.74
2023-05-17T21:00:06.430Z,11.08
2023-05-17T21:02:34.464Z,11.11
2023-05-17T21:05:03.331Z,10.91
2023-05-17T21:07:31.329Z,10.92
2023-05-17T21:09:59.430Z,10.86
2023-05-17T21:12:27.514Z,10.76
2023-05-17T21:15:14.529Z,10.41
2023-05-17T21:17:44.234Z,9.99
2023-05-17T21:20:13.228Z,10.15
2023-05-17T21:22:41.233Z,10.24
2023-05-17T21:25:10.716Z,10.43
2023-05-17T21:27:38.612Z,10.54
2023-05-17T21:30:10.930Z,10.37
2023-05-17T21:32:39.306Z,10.64
2023-05-17T21:35:07.800Z,10.91
2023-05-17T21:37:37.077Z,10.79
2023-05-17T21:40:05.312Z,10.82
2023-05-17T21:42:33.712Z,11.11
2023-05-17T21:45:01.700Z,10.90
2023-05-17T21:47:31.013Z,10.94
2023-05-17T21:49:59.124Z,10.92
2023-05-17T21:52:27.095Z,10.97
2023-05-17T21:54:54.933Z,10.62
2023-05-17T21:57:22.819Z,10.64
2023-05-17T21:59:51.978Z,10.36
2023-05-17T22:02:20.185Z,10.62
2023-05-17T22:04:49.478Z,10.72
2023-05-17T22:07:17.362Z,10.78
2023-05-17T22:09:46.631Z,10.63
2023-05-17T22:12:14.735Z,10.75
2023-05-17T22:14:44.611Z,10.65
2023-05-17T22:17:13.021Z,10.78
2023-05-17T22:19:41.612Z,10.66
2023-05-17T22:22:10.807Z,10.68
2023-05-17T22:24:38.989Z,10.79
2023-05-17T22:27:07.244Z,10.79
2023-05-17T22:29:35.343Z,10.68
2023-05-17T22:32:03.265Z,10.62
2023-05-17T22:34:31.889Z,10.78
2023-05-17T22:36:59.939Z,10.71
2023-05-17T22:39:29.390Z,10.46
2023-05-17T22:41:57.462Z,10.61
2023-05-17T22:44:26.307Z,10.54
2023-05-17T22:46:57.644Z,10.64
2023-05-17T22:49:25.945Z,10.37
2023-05-17T22:51:54.511Z,10.59
2023-05-17T22:54:22.258Z,10.54
2023-05-17T22:56:51.661Z,10.26
2023-05-17T22:59:19.511Z,10.34
2023-05-17T23:01:47.378Z,10.15
2023-05-17T23:04:15.446Z,10.22
2023-05-17T23:06:43.351Z,10.14
2023-05-17T23:09:11.556Z,10.02
2023-05-17T23:11:41.380Z,10.08
2023-05-17T23:14:11.381Z,10.12
2023-05-17T23:16:39.471Z,10.12
2023-05-17T23:19:07.451Z,9.87
2023-05-17T23:21:36.320Z,10.07
2023-05-17T23:24:04.019Z,9.89
2023-05-17T23:26:33.954Z,9.94
2023-05-17T23:29:03.561Z,10.04
2023-05-17T23:31:33.906Z,10.00
2023-05-17T23:34:01.832Z,9.99
2023-05-17T23:36:29.523Z,10.13
2023-05-17T23:38:57.247Z,9.92
2023-05-17T23:41:25.517Z,10.01
2023-05-17T23:43:53.244Z,9.77
2023-05-17T23:46:21.986Z,9.76
2023-05-17T23:48:51.242Z,9.74
2023-05-17T23:51:20.361Z,9.84
2023-05-17T23:53:49.089Z,9.69
2023-05-17T23:56:17.720Z,9.80
2023-05-17T23:58:45.634Z,9.77
